KBAD

Barksdale AFB Airport

Bossier City, Louisiana, USA
METAR KBAD 221656Z AUTO 31007KT 10SM CLR 31/20 A3002 RMK AO2 SLP167 T03070200
Observed Flight Rules
May-22 @ 16:56 UTC (59 minutes ago) Visual Flight Rules
Wind Visibility Clouds
310° at 7 knots 10 miles
  • Clear skies
Temperatures Readings
Current 31°C / 88°F
Dewpoint 20°C / 68°F
Humidity 52%
Altimeter 30.02" Hg
Pressure 1016.7 hPa
Elevation 51
METAR KBAD 221656Z AUTO 31007KT 10SM CLR 31/20 A3002 RMK AO2 SLP167 T03070200
Observed Flight Rules
May-22 @ 16:56 UTC
(59 minutes ago)
VFR
Wind Visibility
310° at 7 knots 10 miles
Clouds
  • Clear skies
Temperature Dewpoint
31°C / 88°F 20°C / 68°F
Humidity Altimeter Pressure
52% 30.02" Hg 1016.7 hPa